Casar, NC (28020)

3:44 PM EST on December 09, 2016 (GMT -0500)
www.bbengineering.com | | Change Station

Elev 1079 ft 35.41 °N, 81.66 °W | Updated 3 seconds ago

Clear
Clear
42.6 °F
Feels Like 38 °F
N
8.3
Wind Variable Wind from NW
Gusts 11.9 mph

Today
High -- | Low -- °F
--% Chance of Precip.
Yesterday
High -- | Low -- °F
Precip. -- in
Pressure 30.38 in
Visibility 10.0 miles
Clouds Clear
Windchill 38 °F
Dew Point 14 °F
Humidity 31%
Rainfall 0.00 in
Snow Depth Not available.
7:24 AM 5:13 PM
Waxing Gibbous, 77% visible
METAR KEHO 092025Z AUTO 30011KT 10SM CLR 05/M13 A3038 RMK AO2 T00541130
Pressure 30.38 in
Visibility 10.0 miles
Clouds Clear
Windchill 38 °F
Dew Point 14 °F
Humidity 31%
Rainfall 0.00 in
Snow Depth Not available.
7:24 AM 5:13 PM
Waxing Gibbous, 77% visible
METAR KEHO 092025Z AUTO 30011KT 10SM CLR 05/M13 A3038 RMK AO2 T00541130

10-Day Weather Forecast

Almanac

Astronomy

Dec. 09, 2016 Rise Set
Actual Time
Civil Twilight
Nautical Twilight
Astronomical Twilight
Moon
Length of Visible Light
Length of Day
Tomorrow will be .
, % of the Moon is Illuminated

Today's Extremes

State Highs State Lows

Community

WunderPhotos

Upload Photos

1,956,517 photos uploaded!

WunderBlog® & News

Nearby

Air Quality

  Air Quality AQ Index Pollutant
Not available.

Snow Depth

Station Depth Elevation

Earthquake Activity

City Distance Mag. Time & Date
Minimum magnitude displayed is 2.5.

Coastal Water Temperatures

Place Temperature

Stations

Nearby Weather Stations

Station Location Temp. Windchill Dew Point Humidity Wind Precip. Elev Updated Type
                   

Watches & Warnings

There are currently no watches in effect.